Time;durP1;ratioP1;P1;durP2;ratioP2;P2;SDS_P1;SDS_P2;PMS_P1;PMS_P2;Temp;Humidity;BMP_temperature;BMP_pressure;BME280_temperature;BME280_humidity;BME280_pressure;Samples;Min_cycle;Max_cycle;Signal;HPM_P1;HPM_P2
2022/01/17 00:01:45;;;;;;;;;;;6.50;99.90;;;;;;5119858;28;20000;-72
2022/01/17 00:04:11;;;;;;;;;;;6.50;99.90;;;;;;5127558;27;20010;-73
2022/01/17 00:06:37;;;;;;;;;;;6.50;99.90;;;;;;5118633;27;19917;-74
2022/01/17 00:09:03;;;;;;;;;;;6.50;99.90;;;;;;5125089;27;19911;-75
2022/01/17 00:11:28;;;;;;;;;;;6.50;99.90;;;;;;5128998;27;19912;-74
2022/01/17 00:13:55;;;;;;;;;;;6.60;99.90;;;;;;5131796;27;19927;-74
2022/01/17 00:16:33;;;;;;;;;;;6.60;99.90;;;;;;5132404;27;19947;-74
2022/01/17 00:21:30;;;;;;;;;;;6.70;99.90;;;;;;5128855;27;19956;-74
2022/01/17 00:23:56;;;;;;;;;;;6.60;99.90;;;;;;5124454;27;19955;-74
2022/01/17 00:26:21;;;;;;;;;;;6.50;99.90;;;;;;5124678;27;19919;-74
2022/01/17 00:28:47;;;;;;;;;;;6.30;99.90;;;;;;5127693;27;19938;-73
2022/01/17 00:31:12;;;;;;;;;;;6.30;99.90;;;;;;5124837;27;20361;-75
2022/01/17 00:33:38;;;;;;;;;;;6.20;99.90;;;;;;5120044;27;19916;-73
2022/01/17 00:36:03;;;;;;;;;;;6.10;99.90;;;;;;5123924;27;19911;-72
2022/01/17 00:38:29;;;;;;;;;;;6.10;99.90;;;;;;5120232;27;19919;-74
2022/01/17 00:40:55;;;;;;;;;;;6.00;99.90;;;;;;5130650;27;19927;-73
2022/01/17 00:43:20;;;;;;;;;;;6.00;99.90;;;;;;5118080;27;20382;-72
2022/01/17 00:45:46;;;;;;;;;;;6.10;99.90;;;;;;5126032;27;20472;-75
2022/01/17 00:48:12;;;;;;;;;;;6.20;99.90;;;;;;5123015;27;19940;-73
2022/01/17 00:50:38;;;;;;;;;;;6.30;99.90;;;;;;5131499;27;19917;-75
2022/01/17 00:53:05;;;;;;;;;;;6.30;99.90;;;;;;5122609;27;19915;-72
2022/01/17 00:55:31;;;;;;;;;;;6.40;99.90;;;;;;5124256;27;20386;-70
2022/01/17 00:57:57;;;;;;;;;;;6.50;99.90;;;;;;5123854;27;19911;-73
2022/01/17 01:00:23;;;;;;;;;;;6.60;99.90;;;;;;5124701;27;19927;-75
2022/01/17 01:02:48;;;;;;;;;;;6.60;99.90;;;;;;5128995;27;20270;-75
2022/01/17 01:05:14;;;;;;;;;;;6.60;99.90;;;;;;5127775;27;19923;-74
2022/01/17 01:07:40;;;;;;;;;;;6.50;99.90;;;;;;5121119;27;19954;-73
2022/01/17 01:10:10;;;;;;;;;;;6.60;99.90;;;;;;5121672;27;19912;-72
2022/01/17 01:12:40;;;;;;;;;;;6.60;99.90;;;;;;5123832;27;20501;-73
2022/01/17 01:15:11;;;;;;;;;;;6.60;99.90;;;;;;5131307;27;19982;-74
2022/01/17 01:17:48;;;;;;;;;;;6.60;99.90;;;;;;5128371;27;19908;-74
2022/01/17 01:28:08;;;;;;;;;;;6.70;99.90;;;;;;5127173;27;19922;-73
2022/01/17 01:30:39;;;;;;;;;;;6.80;99.90;;;;;;5127445;27;19935;-74
2022/01/17 01:33:05;;;;;;;;;;;6.80;99.90;;;;;;5121919;27;20381;-73
2022/01/17 01:35:32;;;;;;;;;;;6.80;99.90;;;;;;5123924;27;19918;-74
2022/01/17 01:37:59;;;;;;;;;;;6.80;99.90;;;;;;5120809;27;20024;-74
2022/01/17 01:40:25;;;;;;;;;;;6.90;99.90;;;;;;5128212;27;19922;-74
2022/01/17 01:42:52;;;;;;;;;;;6.90;99.90;;;;;;5129124;27;19908;-74
2022/01/17 01:45:19;;;;;;;;;;;6.90;99.90;;;;;;5130955;27;20052;-74
2022/01/17 01:47:45;;;;;;;;;;;6.90;99.90;;;;;;5129572;27;19915;-75
2022/01/17 01:50:11;;;;;;;;;;;6.90;99.90;;;;;;5129156;27;19918;-75
2022/01/17 01:52:37;;;;;;;;;;;6.90;99.90;;;;;;5128128;27;19959;-73
2022/01/17 01:55:04;;;;;;;;;;;6.80;99.90;;;;;;5131715;27;19911;-73
2022/01/17 01:57:30;;;;;;;;;;;6.80;99.90;;;;;;5123704;27;19927;-73
2022/01/17 01:59:56;;;;;;;;;;;6.70;99.90;;;;;;5125222;27;19911;-74
2022/01/17 02:02:21;;;;;;;;;;;6.70;99.90;;;;;;5125318;27;19969;-74
2022/01/17 02:04:47;;;;;;;;;;;6.70;99.90;;;;;;5128552;27;19958;-74
2022/01/17 02:07:13;;;;;;;;;;;6.80;99.90;;;;;;5126486;27;19920;-74
2022/01/17 02:09:38;;;;;;;;;;;6.80;99.90;;;;;;5133154;27;19914;-75
2022/01/17 02:12:04;;;;;;;;;;;6.80;99.90;;;;;;5128726;27;19916;-74
2022/01/17 02:14:30;;;;;;;;;;;6.80;99.90;;;;;;5131282;27;19934;-72
2022/01/17 02:17:00;;;;;;;;;;;6.80;99.90;;;;;;5124688;27;19919;-73
2022/01/17 02:19:28;;;;;;;;;;;6.90;99.90;;;;;;5125395;27;19908;-73
2022/01/17 02:21:54;;;;;;;;;;;6.80;99.90;;;;;;5128984;27;19937;-73
2022/01/17 02:24:20;;;;;;;;;;;6.80;99.90;;;;;;5132322;27;19908;-73
2022/01/17 02:26:47;;;;;;;;;;;6.70;99.90;;;;;;5129569;27;20002;-72
2022/01/17 02:29:12;;;;;;;;;;;6.60;99.90;;;;;;5128573;27;19912;-74
2022/01/17 02:31:38;;;;;;;;;;;6.60;99.90;;;;;;5130078;27;19925;-72
2022/01/17 02:34:04;;;;;;;;;;;6.70;99.90;;;;;;5126630;27;19912;-73
2022/01/17 02:36:30;;;;;;;;;;;6.60;99.90;;;;;;5128801;27;19930;-74
2022/01/17 02:38:56;;;;;;;;;;;6.60;99.90;;;;;;5112854;27;19912;-72
2022/01/17 02:41:22;;;;;;;;;;;6.50;99.90;;;;;;5125252;27;20376;-73
2022/01/17 02:43:48;;;;;;;;;;;6.40;99.90;;;;;;5128646;27;19912;-73
2022/01/17 02:48:40;;;;;;;;;;;6.30;99.90;;;;;;5124465;27;20330;-75
2022/01/17 02:51:06;;;;;;;;;;;6.30;99.90;;;;;;5119947;27;19922;-74
2022/01/17 02:53:32;;;;;;;;;;;6.30;99.90;;;;;;5118363;27;19912;-74
2022/01/17 02:55:59;;;;;;;;;;;6.30;99.90;;;;;;5123052;27;19932;-74
2022/01/17 02:58:26;;;;;;;;;;;6.30;99.90;;;;;;5120481;27;19915;-73
2022/01/17 03:00:52;;;;;;;;;;;6.10;99.90;;;;;;5124890;28;19918;-72
2022/01/17 03:03:20;;;;;;;;;;;6.10;99.90;;;;;;5114798;28;19916;-74
2022/01/17 03:05:48;;;;;;;;;;;6.00;99.90;;;;;;5119802;28;20373;-72
2022/01/17 03:08:15;;;;;;;;;;;6.00;99.90;;;;;;5123562;28;19915;-74
2022/01/17 03:10:43;;;;;;;;;;;5.90;99.90;;;;;;5123437;28;19911;-74
2022/01/17 03:13:12;;;;;;;;;;;5.90;99.90;;;;;;5124373;28;20405;-74
2022/01/17 03:15:38;;;;;;;;;;;5.90;99.90;;;;;;5122646;28;19932;-73
2022/01/17 03:18:04;;;;;;;;;;;5.90;99.90;;;;;;5123279;28;20011;-73
2022/01/17 03:20:30;;;;;;;;;;;5.90;99.90;;;;;;5126465;28;19955;-74
2022/01/17 03:22:56;;;;;;;;;;;5.80;99.90;;;;;;5125509;28;19932;-74
2022/01/17 03:25:34;;;;;;;;;;;5.80;99.90;;;;;;5126524;28;19911;-74
2022/01/17 03:28:00;;;;;;;;;;;5.80;99.90;;;;;;5122168;28;19916;-75
2022/01/17 03:30:27;;;;;;;;;;;5.70;99.90;;;;;;5131397;28;19912;-74
2022/01/17 03:32:52;;;;;;;;;;;5.70;99.90;;;;;;5125867;28;19911;-75
2022/01/17 03:35:18;;;;;;;;;;;5.80;99.90;;;;;;5126373;27;20033;-74
2022/01/17 03:37:47;;;;;;;;;;;5.70;99.90;;;;;;5130064;27;20055;-74
2022/01/17 03:40:13;;;;;;;;;;;5.70;99.90;;;;;;5126256;27;20285;-74
2022/01/17 03:42:40;;;;;;;;;;;5.70;99.90;;;;;;5125438;27;19915;-74
2022/01/17 03:45:09;;;;;;;;;;;5.70;99.90;;;;;;5131694;27;19907;-73
2022/01/17 03:47:35;;;;;;;;;;;5.70;99.90;;;;;;5123896;27;19920;-73
2022/01/17 03:50:02;;;;;;;;;;;5.80;99.90;;;;;;5117592;27;20010;-73
2022/01/17 03:52:28;;;;;;;;;;;5.80;99.90;;;;;;5132097;27;19986;-72
2022/01/17 03:54:53;;;;;;;;;;;5.70;99.90;;;;;;5132288;27;19919;-73
2022/01/17 03:57:19;;;;;;;;;;;5.70;99.90;;;;;;5128001;27;19911;-73
2022/01/17 03:59:44;;;;;;;;;;;5.70;99.90;;;;;;5130925;27;19915;-73
2022/01/17 04:02:10;;;;;;;;;;;5.70;99.90;;;;;;5130947;27;19915;-73
2022/01/17 04:04:35;;;;;;;;;;;5.80;99.90;;;;;;5125857;27;20241;-74
2022/01/17 04:07:01;;;;;;;;;;;5.80;99.90;;;;;;5115883;27;20002;-74
2022/01/17 04:09:26;;;;;;;;;;;5.80;99.90;;;;;;5125082;27;20008;-74
2022/01/17 04:11:52;;;;;;;;;;;5.80;99.90;;;;;;5126260;27;19912;-74
2022/01/17 04:14:18;;;;;;;;;;;5.70;99.90;;;;;;5133878;27;19915;-72
2022/01/17 04:16:43;;;;;;;;;;;5.60;99.90;;;;;;5127463;27;19950;-72
2022/01/17 04:19:12;;;;;;;;;;;5.50;99.90;;;;;;5133269;27;19918;-73
2022/01/17 04:21:38;;;;;;;;;;;5.50;99.90;;;;;;5129042;27;20435;-71
2022/01/17 04:24:04;;;;;;;;;;;5.50;99.90;;;;;;5123184;27;19912;-74
2022/01/17 04:26:29;;;;;;;;;;;5.50;99.90;;;;;;5125591;27;19918;-74
2022/01/17 04:28:55;;;;;;;;;;;5.40;99.90;;;;;;5132362;27;19936;-72
2022/01/17 04:31:21;;;;;;;;;;;5.40;99.90;;;;;;5118317;27;19927;-73
2022/01/17 04:33:47;;;;;;;;;;;5.40;99.90;;;;;;5123134;27;20269;-73
2022/01/17 04:36:12;;;;;;;;;;;5.30;99.90;;;;;;5121735;27;20288;-73
2022/01/17 04:38:38;;;;;;;;;;;5.30;99.90;;;;;;5128043;27;19947;-73
2022/01/17 04:41:12;;;;;;;;;;;5.40;99.90;;;;;;5130884;27;19911;-73
2022/01/17 04:46:05;;;;;;;;;;;5.30;99.90;;;;;;5124842;27;19911;-72
2022/01/17 04:48:31;;;;;;;;;;;5.20;99.90;;;;;;5122838;27;19915;-73
2022/01/17 04:50:58;;;;;;;;;;;5.10;99.90;;;;;;5128697;27;19939;-74
2022/01/17 04:53:25;;;;;;;;;;;5.10;99.90;;;;;;5123441;27;19912;-73
2022/01/17 04:55:50;;;;;;;;;;;5.10;99.90;;;;;;5125785;27;19918;-74
2022/01/17 04:58:16;;;;;;;;;;;5.10;99.90;;;;;;5122158;27;19920;-72
2022/01/17 05:00:48;;;;;;;;;;;5.10;99.90;;;;;;5121262;27;19920;-73
2022/01/17 05:03:14;;;;;;;;;;;5.10;99.90;;;;;;5123440;27;19915;-73
2022/01/17 05:05:39;;;;;;;;;;;5.00;99.90;;;;;;5129115;27;19964;-73
2022/01/17 05:08:05;;;;;;;;;;;5.00;99.90;;;;;;5127310;27;19919;-73
2022/01/17 05:10:31;;;;;;;;;;;4.90;99.90;;;;;;5122646;27;19918;-73
2022/01/17 05:12:56;;;;;;;;;;;4.90;99.90;;;;;;5123078;27;19912;-73
2022/01/17 05:18:00;;;;;;;;;;;4.90;99.90;;;;;;5131338;27;19915;-72
2022/01/17 05:20:27;;;;;;;;;;;4.90;99.90;;;;;;5131872;27;19917;-73
2022/01/17 05:22:52;;;;;;;;;;;4.90;99.90;;;;;;5118616;27;20011;-74
2022/01/17 05:25:18;;;;;;;;;;;4.90;99.90;;;;;;5121263;27;20082;-74
2022/01/17 05:27:44;;;;;;;;;;;4.90;99.90;;;;;;5131320;27;20353;-73
2022/01/17 05:30:11;;;;;;;;;;;4.90;99.90;;;;;;5129090;27;20392;-72
2022/01/17 05:32:37;;;;;;;;;;;4.90;99.90;;;;;;5121886;27;20349;-73
2022/01/17 05:35:03;;;;;;;;;;;4.90;99.90;;;;;;5125651;27;19912;-73
2022/01/17 05:37:29;;;;;;;;;;;4.90;99.90;;;;;;5125227;27;20373;-73
2022/01/17 05:39:54;;;;;;;;;;;5.00;99.90;;;;;;5127590;27;19965;-73
2022/01/17 05:42:20;;;;;;;;;;;5.00;99.90;;;;;;5124598;27;19912;-73
2022/01/17 05:44:47;;;;;;;;;;;5.00;99.90;;;;;;5132766;27;19911;-73
2022/01/17 05:47:12;;;;;;;;;;;4.90;99.90;;;;;;5123989;27;19923;-72
2022/01/17 05:49:38;;;;;;;;;;;4.80;99.90;;;;;;5130238;27;19912;-71
2022/01/17 05:52:04;;;;;;;;;;;4.80;99.90;;;;;;5125739;27;19916;-76
2022/01/17 05:54:30;;;;;;;;;;;4.70;99.90;;;;;;5117463;27;19923;-74
2022/01/17 05:56:55;;;;;;;;;;;4.70;99.90;;;;;;5127039;27;19919;-74
2022/01/17 05:59:21;;;;;;;;;;;4.60;99.90;;;;;;5128218;27;19911;-73
2022/01/17 06:01:47;;;;;;;;;;;4.60;99.90;;;;;;5120960;27;20384;-73
2022/01/17 06:04:12;;;;;;;;;;;4.50;99.90;;;;;;5124607;27;20369;-73
2022/01/17 06:06:38;;;;;;;;;;;4.50;99.90;;;;;;5125490;27;19947;-74
2022/01/17 06:09:03;;;;;;;;;;;4.60;99.90;;;;;;5125665;27;20006;-72
2022/01/17 06:11:30;;;;;;;;;;;4.60;99.90;;;;;;5121751;27;19912;-72
2022/01/17 06:13:57;;;;;;;;;;;4.60;99.90;;;;;;5125438;27;20348;-74
2022/01/17 06:16:23;;;;;;;;;;;4.70;99.90;;;;;;5123088;27;19963;-74
2022/01/17 06:18:48;;;;;;;;;;;4.70;99.90;;;;;;5117849;27;20342;-73
2022/01/17 06:21:14;;;;;;;;;;;4.60;99.90;;;;;;5126640;27;20098;-73
2022/01/17 06:23:39;;;;;;;;;;;4.80;99.90;;;;;;5124361;27;19912;-72
2022/01/17 06:26:05;;;;;;;;;;;5.00;99.90;;;;;;5126721;27;19927;-74
2022/01/17 06:28:31;;;;;;;;;;;5.10;99.90;;;;;;5115097;27;20375;-74
2022/01/17 06:30:56;;;;;;;;;;;5.10;99.90;;;;;;5119307;27;20276;-72
2022/01/17 06:33:22;;;;;;;;;;;5.10;99.90;;;;;;5122167;27;19911;-73
2022/01/17 06:35:47;;;;;;;;;;;5.10;99.90;;;;;;5128034;27;20348;-73
2022/01/17 06:38:13;;;;;;;;;;;5.10;99.90;;;;;;5124018;27;19946;-73
2022/01/17 06:40:39;;;;;;;;;;;5.10;99.90;;;;;;5128903;27;19911;-72
2022/01/17 06:43:08;;;;;;;;;;;5.20;99.90;;;;;;5122939;27;19920;-74
2022/01/17 06:45:34;;;;;;;;;;;5.20;99.90;;;;;;5125030;27;19927;-74
2022/01/17 06:48:01;;;;;;;;;;;5.20;99.90;;;;;;5124870;27;19960;-72
2022/01/17 06:50:26;;;;;;;;;;;5.10;99.90;;;;;;5121888;27;19915;-73
2022/01/17 06:52:52;;;;;;;;;;;5.10;99.90;;;;;;5126962;27;19912;-74
2022/01/17 06:55:18;;;;;;;;;;;5.10;99.90;;;;;;5128812;27;19918;-73
2022/01/17 06:57:43;;;;;;;;;;;5.10;99.90;;;;;;5120656;27;19918;-72
2022/01/17 07:00:10;;;;;;;;;;;5.10;99.90;;;;;;5117765;27;19965;-74
2022/01/17 07:02:37;;;;;;;;;;;5.00;99.90;;;;;;5113133;28;19915;-74
2022/01/17 07:05:04;;;;;;;;;;;4.90;99.90;;;;;;5129905;28;19918;-73
2022/01/17 07:07:30;;;;;;;;;;;4.80;99.90;;;;;;5129243;27;19920;-73
2022/01/17 07:09:59;;;;;;;;;;;5.00;99.90;;;;;;5117597;28;19923;-74
2022/01/17 07:12:24;;;;;;;;;;;5.10;99.90;;;;;;5126251;28;19912;-73
2022/01/17 07:14:50;;;;;;;;;;;5.20;99.90;;;;;;5115059;27;19919;-74
2022/01/17 07:17:16;;;;;;;;;;;5.20;99.90;;;;;;5114570;27;19913;-72
2022/01/17 07:19:41;;;;;;;;;;;5.40;99.90;;;;;;5124176;27;19915;-73
2022/01/17 07:22:08;;;;;;;;;;;5.30;99.90;;;;;;5116214;27;20416;-74
2022/01/17 07:24:39;;;;;;;;;;;5.30;99.90;;;;;;5125720;27;19994;-76
2022/01/17 07:27:07;;;;;;;;;;;5.30;99.90;;;;;;5120092;27;19923;-74
2022/01/17 07:29:32;;;;;;;;;;;5.30;99.90;;;;;;5122505;27;20308;-75
2022/01/17 07:31:59;;;;;;;;;;;5.40;99.90;;;;;;5125996;27;20018;-74
2022/01/17 07:34:29;;;;;;;;;;;5.70;99.90;;;;;;5121492;27;19911;-75
2022/01/17 07:36:57;;;;;;;;;;;5.90;99.90;;;;;;5121272;27;19927;-75
2022/01/17 07:39:25;;;;;;;;;;;5.70;99.90;;;;;;5115219;27;20327;-74
2022/01/17 07:41:51;;;;;;;;;;;5.70;99.90;;;;;;5118087;27;19912;-76
2022/01/17 07:44:20;;;;;;;;;;;5.80;99.90;;;;;;5116717;27;19915;-74
2022/01/17 07:46:55;;;;;;;;;;;5.90;99.90;;;;;;5124897;27;19920;-74
2022/01/17 07:49:25;;;;;;;;;;;6.00;99.90;;;;;;5126889;27;20030;-75
2022/01/17 07:51:59;;;;;;;;;;;6.10;99.90;;;;;;5119815;27;19912;-74
2022/01/17 07:54:32;;;;;;;;;;;6.10;99.90;;;;;;5122999;27;20312;-73
2022/01/17 07:57:02;;;;;;;;;;;6.20;99.90;;;;;;5120567;27;19969;-72
2022/01/17 07:59:31;;;;;;;;;;;6.40;99.90;;;;;;5123871;27;19957;-75
2022/01/17 08:02:00;;;;;;;;;;;6.40;99.90;;;;;;5125814;27;20353;-72
2022/01/17 08:04:43;;;;;;;;;;;6.40;99.90;;;;;;5119950;27;19959;-77
2022/01/17 08:07:20;;;;;;;;;;;6.40;99.90;;;;;;5123950;27;20369;-76
2022/01/17 08:09:46;;;;;;;;;;;6.50;99.90;;;;;;5120157;27;20400;-75
2022/01/17 08:12:29;;;;;;;;;;;6.70;99.90;;;;;;5124524;27;19937;-77
2022/01/17 08:14:58;;;;;;;;;;;6.90;99.90;;;;;;5119002;27;20368;-73
2022/01/17 08:17:23;;;;;;;;;;;7.30;99.90;;;;;;5118505;27;19912;-74
2022/01/17 08:19:52;;;;;;;;;;;7.60;99.90;;;;;;5128420;27;19930;-72
2022/01/17 08:22:18;;;;;;;;;;;7.80;99.90;;;;;;5130260;27;20032;-70
2022/01/17 08:24:44;;;;;;;;;;;7.90;99.90;;;;;;5125480;27;19972;-71
2022/01/17 08:27:09;;;;;;;;;;;7.90;99.90;;;;;;5123645;27;19924;-70
2022/01/17 08:29:35;;;;;;;;;;;7.80;99.90;;;;;;5132690;27;20682;-72
2022/01/17 08:32:07;;;;;;;;;;;7.80;99.90;;;;;;5132786;27;20390;-71
2022/01/17 08:34:33;;;;;;;;;;;8.00;99.90;;;;;;5126884;27;19919;-71
2022/01/17 08:36:59;;;;;;;;;;;8.20;99.90;;;;;;5112144;27;19912;-66
2022/01/17 08:39:24;;;;;;;;;;;8.20;99.90;;;;;;5115931;27;20259;-68
2022/01/17 08:41:50;;;;;;;;;;;8.30;99.90;;;;;;5119126;27;19912;-67
2022/01/17 08:44:19;;;;;;;;;;;8.40;99.90;;;;;;5129107;27;19987;-68
2022/01/17 08:46:44;;;;;;;;;;;8.50;99.90;;;;;;5133583;27;20018;-68
2022/01/17 08:49:10;;;;;;;;;;;8.60;99.90;;;;;;5131369;27;20380;-69
2022/01/17 08:51:36;;;;;;;;;;;8.60;99.90;;;;;;5126845;27;20438;-68
2022/01/17 08:54:04;;;;;;;;;;;8.60;99.90;;;;;;5122912;27;20326;-69
2022/01/17 08:56:32;;;;;;;;;;;8.70;99.90;;;;;;5122543;27;19911;-69
2022/01/17 08:58:59;;;;;;;;;;;8.80;99.90;;;;;;5123121;27;20280;-68
2022/01/17 09:01:24;;;;;;;;;;;8.80;99.90;;;;;;5125354;27;19912;-68
2022/01/17 09:03:50;;;;;;;;;;;8.80;99.90;;;;;;5129577;27;19917;-68
2022/01/17 09:06:16;;;;;;;;;;;8.80;99.90;;;;;;5122303;27;20422;-69
2022/01/17 09:08:42;;;;;;;;;;;8.70;99.90;;;;;;5120871;27;19923;-69
2022/01/17 09:11:08;;;;;;;;;;;8.60;99.90;;;;;;5130080;27;19937;-68
2022/01/17 09:13:33;;;;;;;;;;;8.70;99.90;;;;;;5119221;27;19915;-70
2022/01/17 09:15:59;;;;;;;;;;;8.90;99.90;;;;;;5121734;27;19912;-68
2022/01/17 09:18:24;;;;;;;;;;;8.90;99.90;;;;;;5123645;27;20412;-68
2022/01/17 09:20:50;;;;;;;;;;;9.00;99.90;;;;;;5123792;27;20288;-69
2022/01/17 09:23:16;;;;;;;;;;;9.00;99.90;;;;;;5125381;27;20237;-68
2022/01/17 09:25:42;;;;;;;;;;;8.90;99.90;;;;;;5127187;27;19911;-68
2022/01/17 09:28:08;;;;;;;;;;;9.10;99.90;;;;;;5128177;27;19923;-69
2022/01/17 09:30:35;;;;;;;;;;;9.20;99.90;;;;;;5128155;27;19920;-70
2022/01/17 09:33:03;;;;;;;;;;;9.40;99.90;;;;;;5123405;27;20015;-67
2022/01/17 09:35:30;;;;;;;;;;;9.70;99.90;;;;;;5126568;27;19953;-67
2022/01/17 09:37:55;;;;;;;;;;;9.90;99.90;;;;;;5130200;27;20010;-67
2022/01/17 09:40:21;;;;;;;;;;;10.10;99.90;;;;;;5134130;27;20494;-67
2022/01/17 09:42:47;;;;;;;;;;;10.20;99.90;;;;;;5130077;27;19912;-67
2022/01/17 09:45:15;;;;;;;;;;;10.40;99.90;;;;;;5130102;27;20269;-68
2022/01/17 09:47:43;;;;;;;;;;;10.50;99.90;;;;;;5125699;27;19956;-68
2022/01/17 09:50:12;;;;;;;;;;;10.30;99.90;;;;;;5127913;27;19912;-68
2022/01/17 09:52:43;;;;;;;;;;;10.40;99.90;;;;;;5132853;27;19915;-67
2022/01/17 09:55:11;;;;;;;;;;;10.40;99.90;;;;;;5133689;27;19922;-68
2022/01/17 09:57:54;;;;;;;;;;;10.40;99.90;;;;;;5127392;27;19912;-69
2022/01/17 10:00:26;;;;;;;;;;;10.50;99.90;;;;;;5127198;27;19972;-69
2022/01/17 10:02:57;;;;;;;;;;;10.40;99.90;;;;;;5127431;27;19940;-68
2022/01/17 10:05:24;;;;;;;;;;;10.50;99.90;;;;;;5129341;27;20385;-68
2022/01/17 10:08:01;;;;;;;;;;;10.40;99.90;;;;;;5131964;27;20377;-68
2022/01/17 10:10:35;;;;;;;;;;;10.40;99.90;;;;;;5129827;27;20322;-68
2022/01/17 10:13:08;;;;;;;;;;;10.40;99.90;;;;;;5122685;27;19964;-66
2022/01/17 10:15:45;;;;;;;;;;;10.40;99.90;;;;;;5129652;27;19984;-69
2022/01/17 10:18:26;;;;;;;;;;;10.30;99.90;;;;;;5127686;27;19973;-68
2022/01/17 10:21:02;;;;;;;;;;;10.30;99.90;;;;;;5132829;27;19912;-68
2022/01/17 10:23:58;;;;;;;;;;;10.40;99.90;;;;;;5131574;27;19979;-68
2022/01/17 10:36:56;;;;;;;;;;;11.10;99.90;;;;;;5125456;27;19942;-68
2022/01/17 10:39:21;;;;;;;;;;;11.30;99.90;;;;;;5128036;27;20382;-69
2022/01/17 10:41:47;;;;;;;;;;;11.50;99.90;;;;;;5125407;27;19943;-69
2022/01/17 10:44:31;;;;;;;;;;;11.60;99.90;;;;;;5125125;27;20026;-66
2022/01/17 10:47:16;;;;;;;;;;;11.60;99.90;;;;;;5123126;27;20006;-67
2022/01/17 10:49:48;;;;;;;;;;;11.60;99.90;;;;;;5122310;27;19971;-69
2022/01/17 10:52:25;;;;;;;;;;;11.50;99.90;;;;;;5119683;27;19912;-68
2022/01/17 10:54:54;;;;;;;;;;;11.30;99.90;;;;;;5125947;27;19912;-67
2022/01/17 10:57:20;;;;;;;;;;;10.90;99.90;;;;;;5131147;27;19954;-67
2022/01/17 10:59:46;;;;;;;;;;;10.80;99.90;;;;;;5124355;27;19962;-69
2022/01/17 11:02:15;;;;;;;;;;;10.60;99.90;;;;;;5122282;27;19916;-68
2022/01/17 11:04:41;;;;;;;;;;;10.60;99.90;;;;;;5124538;28;19920;-68
2022/01/17 11:07:08;;;;;;;;;;;10.40;99.90;;;;;;5124162;27;19920;-67
2022/01/17 11:09:54;;;;;;;;;;;10.40;99.90;;;;;;5115995;28;19916;-68
2022/01/17 11:12:19;;;;;;;;;;;10.40;99.90;;;;;;5128206;28;19911;-68
2022/01/17 11:14:45;;;;;;;;;;;10.40;99.90;;;;;;5128924;28;19983;-68
2022/01/17 11:17:20;;;;;;;;;;;10.70;99.90;;;;;;5125738;27;20257;-68
2022/01/17 11:20:19;;;;;;;;;;;10.80;99.90;;;;;;5126196;28;20380;-68
2022/01/17 11:22:42;;;;;;;;;;;11.00;99.90;;;;;;5125304;28;19916;-68
2022/01/17 11:25:09;;;;;;;;;;;10.80;99.90;;;;;;5131072;27;19915;-68
2022/01/17 11:27:35;;;;;;;;;;;10.80;99.90;;;;;;5125316;27;19927;-67
2022/01/17 11:30:02;;;;;;;;;;;10.80;99.90;;;;;;5128836;27;19947;-69
2022/01/17 11:32:28;;;;;;;;;;;10.70;99.90;;;;;;5122243;28;20365;-68
2022/01/17 11:34:55;;;;;;;;;;;10.50;99.90;;;;;;5128212;28;19919;-68
2022/01/17 11:37:21;;;;;;;;;;;10.20;99.90;;;;;;5126097;27;19916;-68
2022/01/17 11:39:46;;;;;;;;;;;10.10;99.90;;;;;;5123001;28;19912;-68
2022/01/17 11:42:30;;;;;;;;;;;10.00;99.90;;;;;;5125675;28;19912;-69
2022/01/17 11:44:56;;;;;;;;;;;9.90;99.90;;;;;;5128626;28;20376;-67
2022/01/17 11:47:40;;;;;;;;;;;9.70;99.90;;;;;;5122740;28;19923;-67
2022/01/17 11:50:24;;;;;;;;;;;9.70;99.90;;;;;;5123640;28;19968;-68
2022/01/17 11:52:50;;;;;;;;;;;9.70;99.90;;;;;;5126023;28;19911;-67
2022/01/17 11:55:34;;;;;;;;;;;9.50;99.90;;;;;;5126357;27;19960;-69
2022/01/17 11:58:21;;;;;;;;;;;9.50;99.90;;;;;;5126502;28;19946;-69
2022/01/17 12:00:48;;;;;;;;;;;9.40;99.90;;;;;;5129097;27;20005;-68
2022/01/17 12:03:17;;;;;;;;;;;9.50;99.90;;;;;;5131588;27;19993;-68
2022/01/17 12:05:43;;;;;;;;;;;9.50;99.90;;;;;;5130259;27;20270;-67
2022/01/17 12:08:09;;;;;;;;;;;9.60;99.90;;;;;;5132273;27;19937;-67
2022/01/17 12:10:40;;;;;;;;;;;9.60;99.90;;;;;;5130486;27;19915;-69
2022/01/17 12:13:34;;;;;;;;;;;9.80;99.90;;;;;;5130826;27;20015;-68
2022/01/17 12:16:10;;;;;;;;;;;10.00;99.90;;;;;;5127648;27;19912;-68
2022/01/17 12:18:36;;;;;;;;;;;10.30;99.90;;;;;;5125536;27;19919;-68
2022/01/17 12:21:17;;;;;;;;;;;10.50;99.90;;;;;;5126911;27;19931;-69
2022/01/17 12:23:43;;;;;;;;;;;10.60;99.90;;;;;;5125994;27;19919;-69
2022/01/17 12:26:31;;;;;;;;;;;10.60;99.90;;;;;;5127841;27;19920;-68
2022/01/17 12:28:58;;;;;;;;;;;10.50;99.90;;;;;;5122965;27;19972;-67
2022/01/17 12:31:47;;;;;;;;;;;10.50;99.90;;;;;;5126813;27;19916;-67
2022/01/17 12:34:23;;;;;;;;;;;10.50;99.90;;;;;;5133227;27;19963;-68
2022/01/17 12:36:50;;;;;;;;;;;10.50;99.90;;;;;;5133748;27;19933;-68
2022/01/17 12:39:20;;;;;;;;;;;10.60;99.90;;;;;;5133714;27;19929;-68
2022/01/17 12:42:06;;;;;;;;;;;10.60;99.90;;;;;;5130877;27;20025;-67
2022/01/17 12:44:39;;;;;;;;;;;10.60;99.90;;;;;;5127095;27;19972;-67
2022/01/17 12:47:05;;;;;;;;;;;10.60;99.90;;;;;;5133331;27;20019;-68
2022/01/17 12:49:31;;;;;;;;;;;10.60;99.90;;;;;;5132374;27;19918;-68
2022/01/17 12:51:58;;;;;;;;;;;10.60;99.90;;;;;;5133828;27;20373;-67
2022/01/17 12:54:29;;;;;;;;;;;10.40;99.90;;;;;;5124286;27;19912;-68
2022/01/17 12:56:56;;;;;;;;;;;10.50;99.90;;;;;;5119420;27;20361;-68
2022/01/17 12:59:23;;;;;;;;;;;10.40;99.90;;;;;;5132608;27;19914;-68
2022/01/17 13:01:50;;;;;;;;;;;10.50;99.90;;;;;;5119803;27;19916;-68
2022/01/17 13:04:16;;;;;;;;;;;10.50;99.90;;;;;;5132260;27;19911;-67
2022/01/17 13:06:43;;;;;;;;;;;10.60;99.90;;;;;;5125994;27;20015;-66
2022/01/17 13:09:23;;;;;;;;;;;10.60;99.90;;;;;;5129619;27;19911;-70
2022/01/17 13:11:50;;;;;;;;;;;10.60;99.90;;;;;;5130295;27;20318;-67
2022/01/17 13:14:17;;;;;;;;;;;10.90;99.90;;;;;;5131869;27;20387;-67
2022/01/17 13:16:43;;;;;;;;;;;10.90;99.90;;;;;;5132746;27;19964;-66
2022/01/17 13:19:10;;;;;;;;;;;10.90;99.90;;;;;;5133477;27;20281;-67
2022/01/17 13:21:39;;;;;;;;;;;10.90;99.90;;;;;;5124312;27;20014;-68
2022/01/17 13:26:50;;;;;;;;;;;10.90;99.90;;;;;;5129755;27;19912;-69
2022/01/17 13:29:16;;;;;;;;;;;10.90;99.90;;;;;;5133080;27;20520;-68
2022/01/17 13:31:42;;;;;;;;;;;10.80;99.90;;;;;;5131969;27;19979;-69
2022/01/17 13:34:14;;;;;;;;;;;10.70;99.90;;;;;;5131705;27;19908;-68
2022/01/17 13:36:40;;;;;;;;;;;10.60;99.90;;;;;;5128158;27;19915;-69
2022/01/17 13:39:06;;;;;;;;;;;10.50;99.90;;;;;;5130817;27;19911;-67
2022/01/17 13:41:32;;;;;;;;;;;10.40;99.90;;;;;;5125361;27;19919;-67
2022/01/17 13:43:58;;;;;;;;;;;10.30;99.90;;;;;;5125258;27;19914;-68
2022/01/17 13:46:24;;;;;;;;;;;10.20;99.90;;;;;;5130565;27;19907;-68
2022/01/17 13:48:56;;;;;;;;;;;10.00;99.90;;;;;;5127380;27;19926;-68
2022/01/17 13:51:29;;;;;;;;;;;9.90;99.90;;;;;;5126137;27;19990;-68
2022/01/17 13:53:55;;;;;;;;;;;9.80;99.90;;;;;;5140070;27;20340;-67
2022/01/17 13:56:21;;;;;;;;;;;9.70;99.90;;;;;;5124240;27;19919;-68
2022/01/17 13:58:48;;;;;;;;;;;9.50;99.90;;;;;;5130353;27;19912;-68
2022/01/17 14:01:15;;;;;;;;;;;9.40;99.90;;;;;;5130475;27;19927;-68
2022/01/17 14:03:41;;;;;;;;;;;9.40;99.90;;;;;;5130865;27;20424;-68
2022/01/17 14:06:08;;;;;;;;;;;9.30;99.90;;;;;;5123039;27;19990;-67
2022/01/17 14:08:40;;;;;;;;;;;9.30;99.90;;;;;;5129856;27;20254;-67
2022/01/17 14:11:07;;;;;;;;;;;9.30;99.90;;;;;;5131684;27;20373;-68
2022/01/17 14:13:33;;;;;;;;;;;9.40;99.90;;;;;;5128124;27;19911;-67
2022/01/17 14:16:11;;;;;;;;;;;9.40;99.90;;;;;;5122119;27;19918;-68
2022/01/17 14:18:50;;;;;;;;;;;9.50;99.90;;;;;;5122118;27;20006;-67
2022/01/17 14:21:28;;;;;;;;;;;9.50;99.90;;;;;;5131361;27;20006;-68
2022/01/17 14:24:04;;;;;;;;;;;9.60;99.90;;;;;;5131320;27;19911;-67
2022/01/17 14:26:30;;;;;;;;;;;9.60;99.90;;;;;;5132933;27;19914;-68
2022/01/17 14:28:56;;;;;;;;;;;9.50;99.90;;;;;;5127904;27;19915;-68
2022/01/17 14:31:21;;;;;;;;;;;9.50;99.90;;;;;;5132339;27;19918;-69
2022/01/17 14:34:06;;;;;;;;;;;9.50;99.90;;;;;;5129660;27;19911;-68
2022/01/17 14:36:33;;;;;;;;;;;9.50;99.90;;;;;;5133329;27;19937;-68
2022/01/17 14:38:59;;;;;;;;;;;9.40;99.90;;;;;;5125179;27;19911;-68
2022/01/17 14:41:36;;;;;;;;;;;9.40;99.90;;;;;;5130960;27;19911;-68
2022/01/17 14:44:12;;;;;;;;;;;9.40;99.90;;;;;;5126338;27;19934;-69
2022/01/17 14:46:48;;;;;;;;;;;9.30;99.90;;;;;;5129539;27;19911;-70
2022/01/17 14:49:15;;;;;;;;;;;9.30;99.90;;;;;;5131862;27;19942;-70
2022/01/17 14:51:44;;;;;;;;;;;9.10;99.90;;;;;;5129912;28;19912;-68
2022/01/17 14:54:14;;;;;;;;;;;9.10;99.90;;;;;;5128248;27;19908;-67
2022/01/17 15:01:58;;;;;;;;;;;8.80;99.90;;;;;;5123725;27;20002;-70
2022/01/17 15:04:24;;;;;;;;;;;8.80;99.90;;;;;;5130671;27;19954;-68
2022/01/17 15:06:50;;;;;;;;;;;8.80;99.90;;;;;;5125150;27;20366;-68
2022/01/17 15:09:16;;;;;;;;;;;8.80;99.90;;;;;;5116746;28;19927;-68